createdAt,value
2022-10-28T00:02:34.389Z,102437.50
2022-10-28T00:05:38.734Z,102444.91
2022-10-28T00:08:44.030Z,102448.91
2022-10-28T00:11:48.379Z,102432.75
2022-10-28T00:14:52.956Z,102456.81
2022-10-28T00:17:57.239Z,102435.75
2022-10-28T00:21:03.787Z,102444.09
2022-10-28T00:24:10.583Z,102436.84
2022-10-28T00:27:15.062Z,102430.00
2022-10-28T00:30:19.628Z,102427.38
2022-10-28T00:33:23.920Z,102434.28
2022-10-28T00:36:32.434Z,102436.41
2022-10-28T00:39:36.779Z,102426.81
2022-10-28T00:42:41.215Z,102435.63
2022-10-28T00:45:45.724Z,102424.97
2022-10-28T00:48:55.860Z,102428.97
2022-10-28T00:52:08.786Z,102373.38
2022-10-28T00:55:15.477Z,102411.31
2022-10-28T00:58:22.422Z,102405.00
2022-10-28T01:01:26.903Z,102414.84
2022-10-28T01:04:31.480Z,102404.03
2022-10-28T01:07:36.374Z,102417.25
2022-10-28T01:11:18.771Z,102422.03
2022-10-28T01:14:46.899Z,102415.00
2022-10-28T01:18:00.507Z,102427.81
2022-10-28T01:21:23.287Z,102429.34
2022-10-28T01:24:59.584Z,102409.84
2022-10-28T01:28:29.116Z,102423.28
2022-10-28T01:31:48.201Z,102431.44
2022-10-28T01:34:55.264Z,102433.44
2022-10-28T01:38:20.755Z,102438.72
2022-10-28T01:41:26.199Z,102433.88
2022-10-28T01:44:47.937Z,102434.88
2022-10-28T01:48:14.095Z,102435.06
2022-10-28T01:51:24.589Z,102427.03
2022-10-28T01:54:32.830Z,102409.47
2022-10-28T01:57:40.284Z,102432.22
2022-10-28T02:00:46.931Z,102443.53
2022-10-28T02:03:52.764Z,102443.09
2022-10-28T02:06:58.178Z,102436.84
2022-10-28T02:10:34.926Z,102434.66
2022-10-28T02:13:45.269Z,102427.84
2022-10-28T02:16:55.989Z,102430.47
2022-10-28T02:20:13.573Z,102426.69
2022-10-28T02:23:38.071Z,102433.56
2022-10-28T02:26:48.767Z,102410.88
2022-10-28T02:30:12.711Z,102413.72
2022-10-28T02:33:22.630Z,102429.47
2022-10-28T02:36:30.680Z,102432.84
2022-10-28T02:39:41.624Z,102425.81
2022-10-28T02:42:52.141Z,102427.00
2022-10-28T02:46:01.609Z,102421.88
2022-10-28T02:49:11.830Z,102418.44
2022-10-28T02:52:18.516Z,102399.97
2022-10-28T02:55:26.409Z,102421.69
2022-10-28T02:58:31.149Z,102408.41
2022-10-28T03:01:35.620Z,102402.22
2022-10-28T03:04:40.213Z,102412.75
2022-10-28T03:07:45.078Z,102393.38
2022-10-28T03:10:49.407Z,102405.81
2022-10-28T03:13:53.896Z,102407.22
2022-10-28T03:16:58.210Z,102390.19
2022-10-28T03:20:02.545Z,102394.72
2022-10-28T03:23:07.135Z,102396.72
2022-10-28T03:26:11.609Z,102396.56
2022-10-28T03:29:16.330Z,102405.56
2022-10-28T03:35:29.974Z,102384.09
2022-10-28T03:38:34.544Z,102396.13
2022-10-28T03:41:39.164Z,102391.41
2022-10-28T03:44:43.579Z,102394.72
2022-10-28T03:47:48.377Z,102390.88
2022-10-28T03:50:56.250Z,102389.34
2022-10-28T03:54:00.634Z,102388.91
2022-10-28T03:57:05.057Z,102380.00
2022-10-28T04:00:09.927Z,102373.50
2022-10-28T04:03:18.586Z,102379.16
2022-10-28T04:06:22.992Z,102368.50
2022-10-28T04:09:27.441Z,102332.34
2022-10-28T04:12:31.685Z,102347.16
2022-10-28T04:15:35.995Z,102326.16
2022-10-28T04:18:40.597Z,102361.91
2022-10-28T04:21:44.804Z,102364.66
2022-10-28T04:24:49.064Z,102350.16
2022-10-28T04:27:53.905Z,102347.78
2022-10-28T04:30:58.351Z,102345.44
2022-10-28T04:34:02.732Z,102343.59
2022-10-28T04:37:07.248Z,102343.59
2022-10-28T04:40:12.076Z,102339.47
2022-10-28T04:43:16.871Z,102342.06
2022-10-28T04:46:21.212Z,102322.81
2022-10-28T04:49:25.653Z,102340.00
2022-10-28T04:52:30.032Z,102327.41
2022-10-28T04:55:34.487Z,102331.66
2022-10-28T04:58:39.010Z,102322.69
2022-10-28T05:01:43.526Z,102340.47
2022-10-28T05:04:47.915Z,102340.00
2022-10-28T05:07:52.805Z,102351.94
2022-10-28T05:10:57.731Z,102348.44
2022-10-28T05:14:01.920Z,102338.56
2022-10-28T05:17:06.221Z,102336.22
2022-10-28T05:20:12.627Z,102338.78
2022-10-28T05:23:16.948Z,102340.69
2022-10-28T05:26:21.373Z,102340.88
2022-10-28T05:29:27.733Z,102327.19
2022-10-28T05:32:35.464Z,102338.25
2022-10-28T05:35:41.846Z,102322.81
2022-10-28T05:38:47.995Z,102336.75
2022-10-28T05:41:52.396Z,102326.94
2022-10-28T05:44:56.815Z,102329.41
2022-10-28T05:48:01.392Z,102326.22
2022-10-28T05:51:05.982Z,102322.78
2022-10-28T05:54:10.414Z,102323.34
2022-10-28T05:57:16.321Z,102322.97
2022-10-28T06:00:24.582Z,102321.75
2022-10-28T06:03:31.144Z,102323.81
2022-10-28T06:06:35.823Z,102314.09
2022-10-28T06:09:40.011Z,102321.81
2022-10-28T06:12:42.879Z,102310.56
2022-10-28T06:15:54.938Z,102320.44
2022-10-28T06:18:59.264Z,102315.16
2022-10-28T06:22:03.608Z,102313.56
2022-10-28T06:25:08.643Z,102318.50
2022-10-28T06:28:12.992Z,102304.84
2022-10-28T06:31:17.167Z,102310.91
2022-10-28T06:34:21.309Z,102321.47
2022-10-28T06:37:26.739Z,102313.63
2022-10-28T06:40:31.294Z,102314.69
2022-10-28T06:43:35.655Z,102314.16
2022-10-28T06:46:41.511Z,102310.72
2022-10-28T06:49:45.904Z,102311.47
2022-10-28T06:52:50.529Z,102313.59
2022-10-28T06:55:59.510Z,102315.00
2022-10-28T06:59:04.358Z,102306.97
2022-10-28T07:02:10.698Z,102301.34
2022-10-28T07:05:14.963Z,102315.63
2022-10-28T07:08:19.402Z,102309.31
2022-10-28T07:11:25.030Z,102314.47
2022-10-28T07:14:29.557Z,102313.34
2022-10-28T07:17:33.936Z,102307.22
2022-10-28T07:20:38.229Z,102324.38
2022-10-28T07:23:42.866Z,102320.53
2022-10-28T07:26:54.286Z,102323.66
2022-10-28T07:30:01.492Z,102316.66
2022-10-28T07:33:07.483Z,102305.03
2022-10-28T07:36:12.848Z,102304.97
2022-10-28T07:39:17.670Z,102292.94
2022-10-28T07:42:21.833Z,102322.16
2022-10-28T07:45:26.721Z,102335.09
2022-10-28T07:48:31.310Z,102300.50
2022-10-28T07:51:36.276Z,102320.22
2022-10-28T07:54:40.565Z,102327.25
2022-10-28T07:57:44.937Z,102326.31
2022-10-28T08:00:49.528Z,102315.59
2022-10-28T08:03:53.861Z,102328.69
2022-10-28T08:06:58.425Z,102334.69
2022-10-28T08:10:02.577Z,102327.97
2022-10-28T08:13:08.012Z,102328.53
2022-10-28T08:16:12.606Z,102336.31
2022-10-28T08:19:17.066Z,102331.22
2022-10-28T08:22:21.489Z,102333.59
2022-10-28T08:25:25.600Z,102342.41
2022-10-28T08:28:30.227Z,102324.66
2022-10-28T08:31:35.072Z,102307.50
2022-10-28T08:34:42.648Z,102342.69
2022-10-28T08:37:53.212Z,102348.03
2022-10-28T08:41:25.871Z,102334.38
2022-10-28T08:44:49.054Z,102355.50
2022-10-28T08:48:06.972Z,102348.06
2022-10-28T08:51:21.553Z,102346.50
2022-10-28T08:54:52.442Z,102361.38
2022-10-28T08:58:32.555Z,102367.38
2022-10-28T09:01:47.384Z,102360.06
2022-10-28T09:05:14.644Z,102359.56
2022-10-28T09:08:24.446Z,102360.13
2022-10-28T09:11:56.444Z,102369.53
2022-10-28T09:15:27.383Z,102368.88
2022-10-28T09:18:56.619Z,102364.66
2022-10-28T09:22:25.128Z,102366.66
2022-10-28T09:25:41.111Z,102360.72
2022-10-28T09:29:03.850Z,102359.75
2022-10-28T09:32:29.449Z,102363.59
2022-10-28T09:35:43.928Z,102343.78
2022-10-28T09:38:49.248Z,102359.75
2022-10-28T09:41:55.783Z,102355.78
2022-10-28T09:45:06.370Z,102310.31
2022-10-28T09:48:30.768Z,102341.22
2022-10-28T09:52:00.468Z,102355.03
2022-10-28T09:55:16.404Z,102338.22
2022-10-28T09:58:20.985Z,102364.28
2022-10-28T10:01:25.505Z,102362.56
2022-10-28T10:04:36.542Z,102363.53
2022-10-28T10:07:47.376Z,102345.81
2022-10-28T10:11:01.928Z,102355.25
2022-10-28T10:14:13.690Z,102350.47
2022-10-28T10:17:24.039Z,102336.41
2022-10-28T10:20:28.558Z,102346.88
2022-10-28T10:23:34.249Z,102353.03
2022-10-28T10:26:38.509Z,102355.66
2022-10-28T10:29:45.978Z,102352.22
2022-10-28T10:32:50.947Z,102332.56
2022-10-28T10:36:16.840Z,102348.16
2022-10-28T10:39:37.771Z,102352.66
2022-10-28T10:42:51.717Z,102341.22
2022-10-28T10:46:19.471Z,102344.69
2022-10-28T10:49:24.040Z,102335.03
2022-10-28T10:52:29.303Z,102332.91
2022-10-28T10:55:43.002Z,102319.38
2022-10-28T10:58:54.880Z,102332.50
2022-10-28T11:02:01.091Z,102331.13
2022-10-28T11:05:09.818Z,102331.81
2022-10-28T11:08:33.125Z,102309.34
2022-10-28T11:11:40.239Z,102328.28
2022-10-28T11:15:22.237Z,102337.88
2022-10-28T11:18:30.062Z,102341.38
2022-10-28T11:22:00.421Z,102343.13
2022-10-28T11:25:34.053Z,102339.59
2022-10-28T11:28:45.041Z,102342.81
2022-10-28T11:31:55.272Z,102346.59
2022-10-28T11:35:19.526Z,102336.38
2022-10-28T11:38:52.039Z,102343.00
2022-10-28T11:42:34.689Z,102333.50
2022-10-28T11:46:08.700Z,102335.16
2022-10-28T11:49:42.371Z,102327.41
2022-10-28T11:53:10.794Z,102331.47
2022-10-28T11:56:18.196Z,102336.56
2022-10-28T11:59:43.141Z,102324.75
2022-10-28T12:03:05.337Z,102328.16
2022-10-28T12:06:30.495Z,102330.66
2022-10-28T12:09:52.681Z,102335.06
2022-10-28T12:13:20.383Z,102347.38
2022-10-28T12:16:44.875Z,102327.56
2022-10-28T12:19:59.745Z,102325.72
2022-10-28T12:23:16.628Z,102328.31
2022-10-28T12:26:22.450Z,102312.44
2022-10-28T12:29:41.565Z,102317.13
2022-10-28T12:32:46.952Z,102322.28
2022-10-28T12:36:20.187Z,102330.81
2022-10-28T12:39:29.998Z,102312.25
2022-10-28T12:42:45.063Z,102311.19
2022-10-28T12:45:51.500Z,102315.56
2022-10-28T12:49:01.431Z,102296.03
2022-10-28T12:52:34.313Z,102319.47
2022-10-28T12:55:49.663Z,102310.88
2022-10-28T12:58:54.080Z,102332.06
2022-10-28T13:02:02.087Z,102316.44
2022-10-28T13:05:07.810Z,102261.84
2022-10-28T13:08:49.172Z,102328.03
2022-10-28T13:11:56.348Z,102330.44
2022-10-28T13:15:19.551Z,102329.22
2022-10-28T13:18:48.518Z,102326.72
2022-10-28T13:22:12.459Z,102329.69
2022-10-28T13:25:38.537Z,102336.78
2022-10-28T13:28:51.613Z,102330.06
2022-10-28T13:31:56.970Z,102322.50
2022-10-28T13:35:11.881Z,102320.16
2022-10-28T13:38:26.958Z,102330.06
2022-10-28T13:41:37.882Z,102328.53
2022-10-28T13:44:50.068Z,102311.81
2022-10-28T13:48:29.770Z,102320.97
2022-10-28T13:51:35.216Z,102318.50
2022-10-28T13:54:45.734Z,102326.84
2022-10-28T13:57:53.779Z,102317.38
2022-10-28T14:01:18.465Z,102339.09
2022-10-28T14:04:27.904Z,102338.38
2022-10-28T14:07:34.770Z,102337.69
2022-10-28T14:10:41.329Z,102332.75
2022-10-28T14:14:01.181Z,102329.56
2022-10-28T14:17:06.869Z,102333.63
2022-10-28T14:20:53.473Z,102330.28
2022-10-28T14:24:11.661Z,102320.84
2022-10-28T14:27:45.383Z,102319.03
2022-10-28T14:31:12.374Z,102326.75
2022-10-28T14:34:18.538Z,102327.69
2022-10-28T14:37:25.845Z,102330.28
2022-10-28T14:40:36.890Z,102324.94
2022-10-28T14:43:44.040Z,102322.69
2022-10-28T14:46:57.000Z,102331.78
2022-10-28T14:50:27.657Z,102331.66
2022-10-28T14:53:35.296Z,102289.38
2022-10-28T14:56:41.601Z,102306.50
2022-10-28T14:59:47.069Z,102316.81
2022-10-28T15:02:52.628Z,102330.88
2022-10-28T15:05:57.382Z,102321.72
2022-10-28T15:09:20.671Z,102333.47
2022-10-28T15:12:27.025Z,102331.28
2022-10-28T15:15:38.591Z,102338.25
2022-10-28T15:18:48.810Z,102352.22
2022-10-28T15:22:04.657Z,102342.88
2022-10-28T15:25:15.009Z,102335.84
2022-10-28T15:28:19.330Z,102309.06
2022-10-28T15:31:23.849Z,102303.34
2022-10-28T15:34:30.774Z,102322.44
2022-10-28T15:37:37.741Z,102319.19
2022-10-28T15:40:41.946Z,102302.84
2022-10-28T15:43:56.511Z,102306.56
2022-10-28T15:47:04.019Z,102302.66
2022-10-28T15:50:17.409Z,102312.09
2022-10-28T15:53:24.065Z,102298.38
2022-10-28T15:56:28.939Z,102289.88
2022-10-28T15:59:33.357Z,102296.66
2022-10-28T16:02:43.287Z,102282.59
2022-10-28T16:05:48.415Z,102305.56
2022-10-28T16:09:11.247Z,102302.91
2022-10-28T16:12:22.727Z,102300.34
2022-10-28T16:15:27.262Z,102301.03
2022-10-28T16:18:34.691Z,102300.97
2022-10-28T16:21:40.184Z,102281.38
2022-10-28T16:24:44.707Z,102306.59
2022-10-28T16:27:50.881Z,102304.72
2022-10-28T16:30:57.573Z,102281.47
2022-10-28T16:34:02.171Z,102310.44
2022-10-28T16:37:21.823Z,102314.59
2022-10-28T16:43:51.046Z,102283.31
2022-10-28T16:46:55.584Z,102275.59
2022-10-28T16:50:01.568Z,102304.72
2022-10-28T16:53:06.763Z,102303.97
2022-10-28T16:56:14.672Z,102292.75
2022-10-28T16:59:20.633Z,102302.28
2022-10-28T17:02:33.781Z,102302.69
2022-10-28T17:05:38.310Z,102304.97
2022-10-28T17:09:02.003Z,102313.19
2022-10-28T17:12:07.283Z,102296.34
2022-10-28T17:15:12.259Z,102296.50
2022-10-28T17:18:16.898Z,102293.16
2022-10-28T17:21:21.737Z,102296.81
2022-10-28T17:24:26.352Z,102302.94
2022-10-28T17:27:31.074Z,102302.34
2022-10-28T17:30:36.446Z,102301.97
2022-10-28T17:33:41.217Z,102302.50
2022-10-28T17:36:47.215Z,102287.88
2022-10-28T17:39:51.908Z,102299.44
2022-10-28T17:42:59.662Z,102297.97
2022-10-28T17:46:08.471Z,102306.53
2022-10-28T17:49:12.920Z,102299.38
2022-10-28T17:52:17.591Z,102292.13
2022-10-28T17:55:22.162Z,102249.91
2022-10-28T17:58:26.933Z,102292.34
2022-10-28T18:01:33.557Z,102286.63
2022-10-28T18:04:38.204Z,102278.38
2022-10-28T18:07:42.971Z,102285.50
2022-10-28T18:11:00.637Z,102294.94
2022-10-28T18:14:05.870Z,102282.28
2022-10-28T18:17:10.267Z,102270.34
2022-10-28T18:20:14.729Z,102278.44
2022-10-28T18:23:19.400Z,102267.22
2022-10-28T18:26:23.957Z,102276.38
2022-10-28T18:29:28.715Z,102274.38
2022-10-28T18:32:34.306Z,102276.16
2022-10-28T18:35:39.009Z,102260.09
2022-10-28T18:38:43.553Z,102282.22
2022-10-28T18:41:48.065Z,102285.34
2022-10-28T18:44:59.190Z,102274.00
2022-10-28T18:48:06.566Z,102278.19
2022-10-28T18:51:14.017Z,102283.94
2022-10-28T18:54:20.357Z,102279.81
2022-10-28T18:57:26.328Z,102280.53
2022-10-28T19:00:30.790Z,102283.09
2022-10-28T19:03:35.686Z,102281.47
2022-10-28T19:06:42.029Z,102184.66
2022-10-28T19:09:46.684Z,102255.50
2022-10-28T19:12:53.211Z,102265.63
2022-10-28T19:15:58.557Z,102272.06
2022-10-28T19:19:05.225Z,102274.91
2022-10-28T19:22:09.634Z,102270.50
2022-10-28T19:25:14.141Z,102281.81
2022-10-28T19:28:18.847Z,102278.31
2022-10-28T19:31:25.790Z,102286.03
2022-10-28T19:34:31.004Z,102278.69
2022-10-28T19:37:36.107Z,102284.78
2022-10-28T19:40:40.850Z,102287.38
2022-10-28T19:43:46.425Z,102300.53
2022-10-28T19:46:51.194Z,102289.63
2022-10-28T19:49:55.828Z,102254.75
2022-10-28T19:53:00.194Z,102304.88
2022-10-28T19:56:05.924Z,102302.63
2022-10-28T19:59:10.284Z,102302.06
2022-10-28T20:02:15.044Z,102292.22
2022-10-28T20:05:19.783Z,102305.31
2022-10-28T20:08:24.189Z,102311.56
2022-10-28T20:11:32.590Z,102320.78
2022-10-28T20:14:37.159Z,102300.97
2022-10-28T20:17:41.630Z,102306.19
2022-10-28T20:20:46.029Z,102302.34
2022-10-28T20:23:56.243Z,102312.19
2022-10-28T20:27:00.784Z,102309.44
2022-10-28T20:30:05.669Z,102307.09
2022-10-28T20:33:09.934Z,102306.25
2022-10-28T20:36:30.756Z,102307.34
2022-10-28T20:39:35.229Z,102302.53
2022-10-28T20:42:39.828Z,102303.16
2022-10-28T20:45:44.737Z,102306.38
2022-10-28T20:48:49.673Z,102315.59
2022-10-28T20:51:54.291Z,102308.56
2022-10-28T20:54:58.897Z,102317.91
2022-10-28T20:58:03.702Z,102307.66
2022-10-28T21:01:13.283Z,102295.53
2022-10-28T21:04:18.312Z,102314.91
2022-10-28T21:07:22.849Z,102315.34
2022-10-28T21:10:27.423Z,102307.28
2022-10-28T21:13:32.206Z,102325.66
2022-10-28T21:16:36.740Z,102320.41
2022-10-28T21:19:41.317Z,102320.66
2022-10-28T21:22:46.125Z,102316.63
2022-10-28T21:25:58.633Z,102332.44
2022-10-28T21:29:03.196Z,102323.94
2022-10-28T21:32:07.939Z,102333.97
2022-10-28T21:35:12.583Z,102335.69
2022-10-28T21:38:17.977Z,102317.81
2022-10-28T21:41:23.330Z,102336.13
2022-10-28T21:44:27.901Z,102323.38
2022-10-28T21:47:32.634Z,102337.31
2022-10-28T21:50:37.056Z,102330.84
2022-10-28T21:53:41.833Z,102332.91
2022-10-28T21:56:47.522Z,102337.91
2022-10-28T21:59:51.788Z,102330.44
2022-10-28T22:02:56.403Z,102329.63
2022-10-28T22:06:00.832Z,102338.28
2022-10-28T22:09:05.450Z,102331.34
2022-10-28T22:12:10.247Z,102306.44
2022-10-28T22:15:14.750Z,102340.06
2022-10-28T22:18:19.338Z,102341.13
2022-10-28T22:21:26.760Z,102343.09
2022-10-28T22:24:30.902Z,102344.69
2022-10-28T22:27:35.333Z,102334.56
2022-10-28T22:30:39.630Z,102348.06
2022-10-28T22:33:44.125Z,102342.13
2022-10-28T22:36:48.490Z,102350.69
2022-10-28T22:39:52.765Z,102357.28
2022-10-28T22:42:57.106Z,102354.69
2022-10-28T22:46:02.067Z,102358.69
2022-10-28T22:49:06.357Z,102341.75
2022-10-28T22:52:10.634Z,102362.78
2022-10-28T22:55:15.115Z,102309.03
2022-10-28T22:58:19.709Z,102350.22
2022-10-28T23:01:26.150Z,102361.41
2022-10-28T23:04:30.710Z,102362.13
2022-10-28T23:07:34.900Z,102344.16
2022-10-28T23:10:39.362Z,102363.31
2022-10-28T23:13:43.983Z,102361.63
2022-10-28T23:16:51.590Z,102353.75
2022-10-28T23:19:56.093Z,102353.94
2022-10-28T23:23:00.460Z,102360.91
2022-10-28T23:26:05.371Z,102341.16
2022-10-28T23:29:09.701Z,102370.41
2022-10-28T23:32:14.216Z,102380.97
2022-10-28T23:35:18.686Z,102368.72
2022-10-28T23:38:23.650Z,102377.34
2022-10-28T23:41:28.431Z,102374.13
2022-10-28T23:44:32.892Z,102368.47
2022-10-28T23:47:37.787Z,102366.78
2022-10-28T23:50:42.590Z,102367.94
2022-10-28T23:53:47.213Z,102364.38
2022-10-28T23:56:51.586Z,102351.84
2022-10-28T23:59:56.053Z,102365.78
